sensor_id;sensor_type;location;lat;lon;timestamp;pressure;altitude;pressure_sealevel;temperature;humidity
55424;BME280;41294;42.666;23.350;2023-02-28T00:01:10;95470.63;;;8.00;100.00
55424;BME280;41294;42.666;23.350;2023-02-28T00:03:36;95488.91;;;8.04;100.00
55424;BME280;41294;42.666;23.350;2023-02-28T00:06:05;95482.50;;;8.05;100.00
55424;BME280;41294;42.666;23.350;2023-02-28T00:08:31;95494.59;;;7.83;100.00
55424;BME280;41294;42.666;23.350;2023-02-28T00:11:01;95486.44;;;7.97;100.00
55424;BME280;41294;42.666;23.350;2023-02-28T00:13:26;95488.53;;;7.86;100.00
55424;BME280;41294;42.666;23.350;2023-02-28T00:16:04;95487.91;;;7.98;100.00
55424;BME280;41294;42.666;23.350;2023-02-28T00:18:30;95492.63;;;7.87;100.00
55424;BME280;41294;42.666;23.350;2023-02-28T00:20:56;95487.47;;;7.83;100.00
55424;BME280;41294;42.666;23.350;2023-02-28T00:23:21;95502.31;;;7.90;100.00
55424;BME280;41294;42.666;23.350;2023-02-28T00:25:48;95509.84;;;7.88;100.00
55424;BME280;41294;42.666;23.350;2023-02-28T00:28:13;95498.69;;;7.84;100.00
55424;BME280;41294;42.666;23.350;2023-02-28T00:30:38;95506.75;;;7.93;100.00
55424;BME280;41294;42.666;23.350;2023-02-28T00:33:04;95514.09;;;8.17;100.00
55424;BME280;41294;42.666;23.350;2023-02-28T00:35:29;95495.28;;;7.67;100.00
55424;BME280;41294;42.666;23.350;2023-02-28T00:37:56;95514.88;;;7.79;100.00
55424;BME280;41294;42.666;23.350;2023-02-28T00:40:21;95512.84;;;8.06;100.00
55424;BME280;41294;42.666;23.350;2023-02-28T00:42:46;95496.00;;;7.68;100.00
55424;BME280;41294;42.666;23.350;2023-02-28T00:45:12;95492.94;;;7.73;100.00
55424;BME280;41294;42.666;23.350;2023-02-28T00:47:37;95484.50;;;7.81;100.00
55424;BME280;41294;42.666;23.350;2023-02-28T00:50:03;95475.13;;;7.84;100.00
55424;BME280;41294;42.666;23.350;2023-02-28T00:52:29;95483.63;;;7.88;100.00
55424;BME280;41294;42.666;23.350;2023-02-28T00:54:55;95497.06;;;7.90;100.00
55424;BME280;41294;42.666;23.350;2023-02-28T00:57:20;95483.16;;;7.93;100.00
55424;BME280;41294;42.666;23.350;2023-02-28T00:59:45;95495.31;;;8.03;100.00
55424;BME280;41294;42.666;23.350;2023-02-28T01:02:11;95496.63;;;8.11;100.00
55424;BME280;41294;42.666;23.350;2023-02-28T01:04:36;95501.53;;;8.09;100.00
55424;BME280;41294;42.666;23.350;2023-02-28T01:07:01;95510.75;;;8.17;100.00
55424;BME280;41294;42.666;23.350;2023-02-28T01:09:27;95496.50;;;8.18;100.00
55424;BME280;41294;42.666;23.350;2023-02-28T01:11:52;95484.78;;;8.22;100.00
55424;BME280;41294;42.666;23.350;2023-02-28T01:14:18;95488.97;;;8.19;100.00
55424;BME280;41294;42.666;23.350;2023-02-28T01:16:43;95478.41;;;8.23;100.00
55424;BME280;41294;42.666;23.350;2023-02-28T01:19:09;95488.22;;;8.19;100.00
55424;BME280;41294;42.666;23.350;2023-02-28T01:21:35;95487.63;;;8.12;100.00
55424;BME280;41294;42.666;23.350;2023-02-28T01:24:02;95483.75;;;8.19;100.00
55424;BME280;41294;42.666;23.350;2023-02-28T01:26:28;95478.59;;;8.13;100.00
55424;BME280;41294;42.666;23.350;2023-02-28T01:28:53;95489.41;;;7.99;100.00
55424;BME280;41294;42.666;23.350;2023-02-28T01:31:20;95486.88;;;7.56;100.00
55424;BME280;41294;42.666;23.350;2023-02-28T01:33:46;95486.03;;;7.43;100.00
55424;BME280;41294;42.666;23.350;2023-02-28T01:36:21;95490.41;;;7.50;100.00
55424;BME280;41294;42.666;23.350;2023-02-28T01:38:47;95486.69;;;7.67;100.00
55424;BME280;41294;42.666;23.350;2023-02-28T01:41:20;95492.84;;;7.76;100.00
55424;BME280;41294;42.666;23.350;2023-02-28T01:46:12;95492.50;;;7.94;100.00
55424;BME280;41294;42.666;23.350;2023-02-28T01:48:51;95501.97;;;7.88;100.00
55424;BME280;41294;42.666;23.350;2023-02-28T01:51:26;95504.44;;;7.95;100.00
55424;BME280;41294;42.666;23.350;2023-02-28T01:53:57;95489.06;;;7.97;100.00
55424;BME280;41294;42.666;23.350;2023-02-28T01:56:28;95501.44;;;7.96;100.00
55424;BME280;41294;42.666;23.350;2023-02-28T01:58:54;95509.88;;;8.04;100.00
55424;BME280;41294;42.666;23.350;2023-02-28T02:01:21;95491.84;;;8.06;100.00
55424;BME280;41294;42.666;23.350;2023-02-28T02:03:56;95494.47;;;8.06;100.00
55424;BME280;41294;42.666;23.350;2023-02-28T02:06:25;95506.09;;;8.05;100.00
55424;BME280;41294;42.666;23.350;2023-02-28T02:08:52;95491.53;;;8.04;100.00
55424;BME280;41294;42.666;23.350;2023-02-28T02:11:19;95492.75;;;7.99;100.00
55424;BME280;41294;42.666;23.350;2023-02-28T02:13:52;95502.69;;;8.08;100.00
55424;BME280;41294;42.666;23.350;2023-02-28T02:16:57;95497.25;;;7.99;100.00
55424;BME280;41294;42.666;23.350;2023-02-28T02:40:57;95489.19;;;7.54;100.00
55424;BME280;41294;42.666;23.350;2023-02-28T02:43:32;95496.00;;;7.68;100.00
55424;BME280;41294;42.666;23.350;2023-02-28T02:46:05;95510.25;;;7.47;100.00
55424;BME280;41294;42.666;23.350;2023-02-28T02:48:34;95500.91;;;7.46;100.00
55424;BME280;41294;42.666;23.350;2023-02-28T02:51:07;95502.16;;;7.61;100.00
55424;BME280;41294;42.666;23.350;2023-02-28T02:53:46;95505.41;;;7.65;100.00
55424;BME280;41294;42.666;23.350;2023-02-28T02:56:15;95509.59;;;7.63;100.00
55424;BME280;41294;42.666;23.350;2023-02-28T02:58:44;95511.59;;;7.75;100.00
55424;BME280;41294;42.666;23.350;2023-02-28T03:01:17;95511.47;;;7.82;100.00
55424;BME280;41294;42.666;23.350;2023-02-28T03:03:56;95518.09;;;7.86;100.00
55424;BME280;41294;42.666;23.350;2023-02-28T03:06:22;95525.03;;;7.96;100.00
55424;BME280;41294;42.666;23.350;2023-02-28T03:08:47;95528.09;;;7.91;100.00
55424;BME280;41294;42.666;23.350;2023-02-28T03:11:14;95530.06;;;7.87;100.00
55424;BME280;41294;42.666;23.350;2023-02-28T03:21:54;95535.31;;;7.87;100.00
55424;BME280;41294;42.666;23.350;2023-02-28T03:24:35;95544.22;;;7.51;100.00
55424;BME280;41294;42.666;23.350;2023-02-28T03:27:36;95543.72;;;7.59;100.00
55424;BME280;41294;42.666;23.350;2023-02-28T03:30:06;95557.81;;;7.65;100.00
55424;BME280;41294;42.666;23.350;2023-02-28T03:32:53;95555.91;;;7.27;100.00
55424;BME280;41294;42.666;23.350;2023-02-28T03:35:25;95552.16;;;7.05;100.00
55424;BME280;41294;42.666;23.350;2023-02-28T03:38:01;95556.72;;;7.01;100.00
55424;BME280;41294;42.666;23.350;2023-02-28T03:40:31;95557.25;;;6.89;100.00
55424;BME280;41294;42.666;23.350;2023-02-28T03:43:01;95555.34;;;6.93;100.00
55424;BME280;41294;42.666;23.350;2023-02-28T03:45:29;95558.66;;;6.97;100.00
55424;BME280;41294;42.666;23.350;2023-02-28T03:48:09;95560.84;;;6.76;100.00
55424;BME280;41294;42.666;23.350;2023-02-28T03:50:39;95565.41;;;6.46;100.00
55424;BME280;41294;42.666;23.350;2023-02-28T03:55:54;95569.44;;;6.24;100.00
55424;BME280;41294;42.666;23.350;2023-02-28T04:00:58;95565.41;;;6.46;100.00
55424;BME280;41294;42.666;23.350;2023-02-28T04:03:35;95573.84;;;6.56;100.00
55424;BME280;41294;42.666;23.350;2023-02-28T04:06:01;95571.34;;;6.50;100.00
55424;BME280;41294;42.666;23.350;2023-02-28T04:08:27;95569.75;;;6.55;100.00
55424;BME280;41294;42.666;23.350;2023-02-28T04:11:07;95569.69;;;6.33;100.00
55424;BME280;41294;42.666;23.350;2023-02-28T04:13:36;95569.84;;;6.49;100.00
55424;BME280;41294;42.666;23.350;2023-02-28T04:16:02;95563.50;;;6.72;100.00
55424;BME280;41294;42.666;23.350;2023-02-28T04:18:36;95563.97;;;6.67;100.00
55424;BME280;41294;42.666;23.350;2023-02-28T04:21:02;95550.75;;;6.52;100.00
55424;BME280;41294;42.666;23.350;2023-02-28T04:23:27;95552.88;;;6.34;100.00
55424;BME280;41294;42.666;23.350;2023-02-28T04:25:55;95562.84;;;6.16;100.00
55424;BME280;41294;42.666;23.350;2023-02-28T04:28:20;95560.91;;;6.20;100.00
55424;BME280;41294;42.666;23.350;2023-02-28T04:30:45;95564.72;;;6.42;100.00
55424;BME280;41294;42.666;23.350;2023-02-28T04:33:11;95568.63;;;6.56;100.00
55424;BME280;41294;42.666;23.350;2023-02-28T04:35:36;95555.34;;;6.70;100.00
55424;BME280;41294;42.666;23.350;2023-02-28T04:38:02;95563.44;;;6.79;100.00
55424;BME280;41294;42.666;23.350;2023-02-28T04:40:27;95572.50;;;6.71;100.00
55424;BME280;41294;42.666;23.350;2023-02-28T04:42:53;95573.25;;;6.19;100.00
55424;BME280;41294;42.666;23.350;2023-02-28T04:45:18;95574.16;;;6.06;100.00
55424;BME280;41294;42.666;23.350;2023-02-28T04:47:43;95586.25;;;6.23;100.00
55424;BME280;41294;42.666;23.350;2023-02-28T04:50:09;95585.91;;;6.21;100.00
55424;BME280;41294;42.666;23.350;2023-02-28T04:52:34;95589.66;;;6.20;100.00
55424;BME280;41294;42.666;23.350;2023-02-28T04:55:00;95580.59;;;6.28;100.00
55424;BME280;41294;42.666;23.350;2023-02-28T04:57:25;95587.66;;;6.31;100.00
55424;BME280;41294;42.666;23.350;2023-02-28T04:59:51;95584.94;;;6.38;100.00
55424;BME280;41294;42.666;23.350;2023-02-28T05:02:16;95588.03;;;6.55;100.00
55424;BME280;41294;42.666;23.350;2023-02-28T05:04:41;95585.56;;;6.71;100.00
55424;BME280;41294;42.666;23.350;2023-02-28T05:07:07;95593.28;;;6.82;100.00
55424;BME280;41294;42.666;23.350;2023-02-28T05:09:32;95590.84;;;6.94;100.00
55424;BME280;41294;42.666;23.350;2023-02-28T05:12:00;95594.94;;;6.95;100.00
55424;BME280;41294;42.666;23.350;2023-02-28T05:14:26;95593.13;;;6.92;100.00
55424;BME280;41294;42.666;23.350;2023-02-28T05:16:51;95591.66;;;6.65;100.00
55424;BME280;41294;42.666;23.350;2023-02-28T05:19:17;95605.84;;;6.38;100.00
55424;BME280;41294;42.666;23.350;2023-02-28T05:21:54;95603.41;;;6.53;100.00
55424;BME280;41294;42.666;23.350;2023-02-28T05:24:20;95595.72;;;6.69;100.00
55424;BME280;41294;42.666;23.350;2023-02-28T05:26:51;95603.81;;;6.78;100.00
55424;BME280;41294;42.666;23.350;2023-02-28T05:29:17;95618.00;;;6.77;100.00
55424;BME280;41294;42.666;23.350;2023-02-28T05:31:43;95612.47;;;6.46;100.00
55424;BME280;41294;42.666;23.350;2023-02-28T05:34:08;95615.72;;;6.27;100.00
55424;BME280;41294;42.666;23.350;2023-02-28T05:36:36;95617.63;;;6.53;100.00
55424;BME280;41294;42.666;23.350;2023-02-28T05:39:02;95613.66;;;6.67;100.00
55424;BME280;41294;42.666;23.350;2023-02-28T05:41:29;95620.22;;;6.79;100.00
55424;BME280;41294;42.666;23.350;2023-02-28T05:43:54;95624.19;;;6.64;100.00
55424;BME280;41294;42.666;23.350;2023-02-28T05:46:20;95625.78;;;6.54;100.00
55424;BME280;41294;42.666;23.350;2023-02-28T05:48:47;95629.78;;;6.62;100.00
55424;BME280;41294;42.666;23.350;2023-02-28T05:51:13;95628.56;;;6.44;100.00
55424;BME280;41294;42.666;23.350;2023-02-28T05:53:38;95631.34;;;6.86;100.00
55424;BME280;41294;42.666;23.350;2023-02-28T05:56:04;95629.66;;;7.22;100.00
55424;BME280;41294;42.666;23.350;2023-02-28T05:58:29;95640.81;;;7.49;100.00
55424;BME280;41294;42.666;23.350;2023-02-28T06:00:56;95633.25;;;7.54;100.00
55424;BME280;41294;42.666;23.350;2023-02-28T06:03:22;95635.47;;;7.10;100.00
55424;BME280;41294;42.666;23.350;2023-02-28T06:05:47;95633.31;;;7.05;100.00
55424;BME280;41294;42.666;23.350;2023-02-28T06:08:13;95630.59;;;6.86;100.00
55424;BME280;41294;42.666;23.350;2023-02-28T06:10:38;95627.38;;;7.24;100.00
55424;BME280;41294;42.666;23.350;2023-02-28T06:13:04;95631.00;;;7.07;100.00
55424;BME280;41294;42.666;23.350;2023-02-28T06:15:29;95630.81;;;7.21;100.00
55424;BME280;41294;42.666;23.350;2023-02-28T06:17:55;95623.88;;;6.85;100.00
55424;BME280;41294;42.666;23.350;2023-02-28T06:20:22;95627.09;;;6.69;100.00
55424;BME280;41294;42.666;23.350;2023-02-28T06:22:48;95635.19;;;6.78;100.00
55424;BME280;41294;42.666;23.350;2023-02-28T06:25:13;95629.16;;;6.81;100.00
55424;BME280;41294;42.666;23.350;2023-02-28T06:27:39;95630.84;;;6.68;100.00
55424;BME280;41294;42.666;23.350;2023-02-28T06:30:04;95622.13;;;6.78;100.00
55424;BME280;41294;42.666;23.350;2023-02-28T06:32:30;95633.16;;;6.89;100.00
55424;BME280;41294;42.666;23.350;2023-02-28T06:34:55;95635.38;;;6.64;100.00
55424;BME280;41294;42.666;23.350;2023-02-28T06:37:22;95638.53;;;6.53;100.00
55424;BME280;41294;42.666;23.350;2023-02-28T06:39:51;95645.31;;;6.76;100.00
55424;BME280;41294;42.666;23.350;2023-02-28T06:42:16;95634.31;;;6.88;100.00
55424;BME280;41294;42.666;23.350;2023-02-28T06:44:42;95649.31;;;7.11;100.00
55424;BME280;41294;42.666;23.350;2023-02-28T06:47:08;95647.75;;;7.36;100.00
55424;BME280;41294;42.666;23.350;2023-02-28T06:49:35;95643.81;;;7.47;100.00
55424;BME280;41294;42.666;23.350;2023-02-28T06:52:01;95655.06;;;7.48;100.00
55424;BME280;41294;42.666;23.350;2023-02-28T06:54:26;95644.47;;;7.55;100.00
55424;BME280;41294;42.666;23.350;2023-02-28T06:56:53;95650.47;;;7.52;100.00
55424;BME280;41294;42.666;23.350;2023-02-28T06:59:22;95648.34;;;7.47;100.00
55424;BME280;41294;42.666;23.350;2023-02-28T07:01:47;95655.22;;;7.60;100.00
55424;BME280;41294;42.666;23.350;2023-02-28T07:04:15;95658.75;;;7.50;100.00
55424;BME280;41294;42.666;23.350;2023-02-28T07:06:41;95656.31;;;7.40;100.00
55424;BME280;41294;42.666;23.350;2023-02-28T07:09:06;95655.00;;;7.51;100.00
55424;BME280;41294;42.666;23.350;2023-02-28T07:11:32;95657.91;;;7.57;100.00
55424;BME280;41294;42.666;23.350;2023-02-28T07:13:57;95652.25;;;7.58;100.00
55424;BME280;41294;42.666;23.350;2023-02-28T07:16:24;95653.03;;;7.78;100.00
55424;BME280;41294;42.666;23.350;2023-02-28T07:18:52;95656.19;;;7.47;100.00
55424;BME280;41294;42.666;23.350;2023-02-28T07:21:18;95650.47;;;7.52;100.00
55424;BME280;41294;42.666;23.350;2023-02-28T07:23:43;95655.63;;;7.59;100.00
55424;BME280;41294;42.666;23.350;2023-02-28T07:26:14;95654.44;;;7.63;100.00
55424;BME280;41294;42.666;23.350;2023-02-28T07:28:45;95653.53;;;7.70;100.00
55424;BME280;41294;42.666;23.350;2023-02-28T07:31:11;95657.25;;;7.72;100.00
55424;BME280;41294;42.666;23.350;2023-02-28T07:33:38;95651.13;;;8.02;100.00
55424;BME280;41294;42.666;23.350;2023-02-28T07:36:12;95656.66;;;8.26;100.00
55424;BME280;41294;42.666;23.350;2023-02-28T07:38:43;95656.94;;;8.32;100.00
55424;BME280;41294;42.666;23.350;2023-02-28T07:41:09;95656.56;;;8.49;100.00
55424;BME280;41294;42.666;23.350;2023-02-28T07:43:34;95658.25;;;8.75;100.00
55424;BME280;41294;42.666;23.350;2023-02-28T07:46:04;95654.84;;;8.94;100.00
55424;BME280;41294;42.666;23.350;2023-02-28T07:48:30;95657.31;;;9.17;100.00
55424;BME280;41294;42.666;23.350;2023-02-28T07:50:56;95646.41;;;9.34;100.00
55424;BME280;41294;42.666;23.350;2023-02-28T07:53:21;95646.66;;;9.40;100.00
55424;BME280;41294;42.666;23.350;2023-02-28T07:55:47;95646.66;;;9.40;100.00
55424;BME280;41294;42.666;23.350;2023-02-28T07:58:12;95646.50;;;9.47;100.00
55424;BME280;41294;42.666;23.350;2023-02-28T08:00:38;95643.53;;;9.45;100.00
55424;BME280;41294;42.666;23.350;2023-02-28T08:03:03;95639.59;;;9.37;100.00
55424;BME280;41294;42.666;23.350;2023-02-28T08:05:29;95646.63;;;8.76;100.00
55424;BME280;41294;42.666;23.350;2023-02-28T08:07:55;95642.56;;;9.07;100.00
55424;BME280;41294;42.666;23.350;2023-02-28T08:10:20;95640.84;;;9.32;100.00
55424;BME280;41294;42.666;23.350;2023-02-28T08:12:46;95645.75;;;9.62;100.00
55424;BME280;41294;42.666;23.350;2023-02-28T08:15:11;95647.41;;;9.56;100.00
55424;BME280;41294;42.666;23.350;2023-02-28T08:17:37;95631.78;;;9.93;100.00
55424;BME280;41294;42.666;23.350;2023-02-28T08:20:02;95646.41;;;9.94;100.00
55424;BME280;41294;42.666;23.350;2023-02-28T08:22:29;95640.34;;;9.53;100.00
55424;BME280;41294;42.666;23.350;2023-02-28T08:24:54;95642.03;;;9.76;100.00
55424;BME280;41294;42.666;23.350;2023-02-28T08:27:20;95641.13;;;10.10;100.00
55424;BME280;41294;42.666;23.350;2023-02-28T08:29:45;95646.59;;;10.57;100.00
55424;BME280;41294;42.666;23.350;2023-02-28T08:32:11;95642.50;;;10.68;100.00
55424;BME280;41294;42.666;23.350;2023-02-28T08:34:39;95642.50;;;10.93;100.00
55424;BME280;41294;42.666;23.350;2023-02-28T08:37:05;95650.53;;;10.89;100.00
55424;BME280;41294;42.666;23.350;2023-02-28T08:39:34;95641.91;;;10.89;100.00
55424;BME280;41294;42.666;23.350;2023-02-28T08:42:01;95646.09;;;11.11;100.00
55424;BME280;41294;42.666;23.350;2023-02-28T08:44:27;95648.19;;;10.54;100.00
55424;BME280;41294;42.666;23.350;2023-02-28T08:46:54;95653.94;;;10.37;100.00
55424;BME280;41294;42.666;23.350;2023-02-28T08:49:19;95647.84;;;10.52;100.00
55424;BME280;41294;42.666;23.350;2023-02-28T08:51:44;95636.63;;;10.76;100.00
55424;BME280;41294;42.666;23.350;2023-02-28T08:54:10;95641.66;;;11.21;100.00
55424;BME280;41294;42.666;23.350;2023-02-28T08:56:41;95647.22;;;11.60;99.81
55424;BME280;41294;42.666;23.350;2023-02-28T08:59:09;95652.38;;;11.63;99.22
55424;BME280;41294;42.666;23.350;2023-02-28T09:01:34;95643.59;;;11.66;99.16
55424;BME280;41294;42.666;23.350;2023-02-28T09:04:01;95648.69;;;11.61;97.94
55424;BME280;41294;42.666;23.350;2023-02-28T09:06:27;95647.13;;;11.39;99.73
55424;BME280;41294;42.666;23.350;2023-02-28T09:08:53;95640.19;;;11.07;100.00
55424;BME280;41294;42.666;23.350;2023-02-28T09:11:22;95646.72;;;11.28;100.00
55424;BME280;41294;42.666;23.350;2023-02-28T09:13:47;95639.28;;;11.60;99.20
55424;BME280;41294;42.666;23.350;2023-02-28T09:16:14;95641.28;;;11.68;97.89
55424;BME280;41294;42.666;23.350;2023-02-28T09:18:41;95643.47;;;10.86;100.00
55424;BME280;41294;42.666;23.350;2023-02-28T09:21:10;95639.78;;;10.84;100.00
55424;BME280;41294;42.666;23.350;2023-02-28T09:23:37;95648.41;;;11.22;100.00
55424;BME280;41294;42.666;23.350;2023-02-28T09:26:05;95636.56;;;11.39;100.00
55424;BME280;41294;42.666;23.350;2023-02-28T09:28:31;95644.38;;;11.54;99.16
55424;BME280;41294;42.666;23.350;2023-02-28T09:30:57;95640.41;;;11.71;98.06
55424;BME280;41294;42.666;23.350;2023-02-28T09:33:25;95636.56;;;11.39;100.00
55424;BME280;41294;42.666;23.350;2023-02-28T09:35:51;95634.63;;;11.05;100.00
55424;BME280;41294;42.666;23.350;2023-02-28T09:38:22;95636.41;;;10.83;100.00
55424;BME280;41294;42.666;23.350;2023-02-28T09:40:51;95643.47;;;11.11;100.00
55424;BME280;41294;42.666;23.350;2023-02-28T09:43:20;95644.00;;;10.94;100.00
55424;BME280;41294;42.666;23.350;2023-02-28T09:46:12;95635.56;;;10.74;100.00
55424;BME280;41294;42.666;23.350;2023-02-28T09:48:41;95640.53;;;10.72;100.00
55424;BME280;41294;42.666;23.350;2023-02-28T09:51:16;95639.47;;;10.57;100.00
55424;BME280;41294;42.666;23.350;2023-02-28T09:53:48;95623.34;;;10.67;100.00
55424;BME280;41294;42.666;23.350;2023-02-28T09:56:39;95632.00;;;11.05;100.00
55424;BME280;41294;42.666;23.350;2023-02-28T09:59:29;95632.19;;;10.86;100.00
55424;BME280;41294;42.666;23.350;2023-02-28T10:02:01;95631.25;;;10.80;100.00
55424;BME280;41294;42.666;23.350;2023-02-28T10:07:41;95614.06;;;11.13;100.00
55424;BME280;41294;42.666;23.350;2023-02-28T10:10:06;95623.00;;;11.52;98.29
55424;BME280;41294;42.666;23.350;2023-02-28T10:12:41;95627.47;;;11.64;95.11
55424;BME280;41294;42.666;23.350;2023-02-28T10:15:14;95615.56;;;11.01;98.16
55424;BME280;41294;42.666;23.350;2023-02-28T10:17:43;95616.28;;;10.64;100.00
55424;BME280;41294;42.666;23.350;2023-02-28T10:20:13;95620.38;;;11.03;100.00
55424;BME280;41294;42.666;23.350;2023-02-28T10:22:59;95616.06;;;11.09;100.00
55424;BME280;41294;42.666;23.350;2023-02-28T10:25:32;95612.38;;;11.06;98.83
55424;BME280;41294;42.666;23.350;2023-02-28T10:28:01;95616.91;;;11.06;98.19
55424;BME280;41294;42.666;23.350;2023-02-28T10:30:30;95608.97;;;11.31;96.90
55424;BME280;41294;42.666;23.350;2023-02-28T10:32:56;95600.44;;;11.27;96.45
55424;BME280;41294;42.666;23.350;2023-02-28T10:35:24;95604.69;;;11.92;93.15
55424;BME280;41294;42.666;23.350;2023-02-28T10:37:54;95595.38;;;11.78;93.77
55424;BME280;41294;42.666;23.350;2023-02-28T10:45:38;95583.34;;;11.77;91.75
55424;BME280;41294;42.666;23.350;2023-02-28T10:48:22;95588.75;;;11.74;92.56
55424;BME280;41294;42.666;23.350;2023-02-28T10:56:17;95571.91;;;11.80;91.57
55424;BME280;41294;42.666;23.350;2023-02-28T11:04:23;95553.41;;;12.14;90.80
55424;BME280;41294;42.666;23.350;2023-02-28T11:07:09;95559.28;;;12.48;87.59
55424;BME280;41294;42.666;23.350;2023-02-28T11:09:54;95558.63;;;12.05;88.97
55424;BME280;41294;42.666;23.350;2023-02-28T11:12:27;95563.69;;;12.21;88.18
55424;BME280;41294;42.666;23.350;2023-02-28T11:17:43;95567.50;;;11.99;88.55
55424;BME280;41294;42.666;23.350;2023-02-28T11:20:21;95552.97;;;12.46;88.82
55424;BME280;41294;42.666;23.350;2023-02-28T11:22:50;95559.75;;;12.26;89.49
55424;BME280;41294;42.666;23.350;2023-02-28T11:25:25;95548.41;;;12.16;88.96
55424;BME280;41294;42.666;23.350;2023-02-28T11:27:53;95541.97;;;12.17;89.61
55424;BME280;41294;42.666;23.350;2023-02-28T11:30:30;95543.31;;;12.22;88.18
55424;BME280;41294;42.666;23.350;2023-02-28T11:32:56;95544.53;;;12.08;89.07
55424;BME280;41294;42.666;23.350;2023-02-28T11:37:57;95544.72;;;12.14;89.17
55424;BME280;41294;42.666;23.350;2023-02-28T11:40:43;95536.19;;;11.79;90.07
55424;BME280;41294;42.666;23.350;2023-02-28T11:43:35;95530.47;;;11.81;90.56
55424;BME280;41294;42.666;23.350;2023-02-28T11:46:17;95536.38;;;11.51;93.20
55424;BME280;41294;42.666;23.350;2023-02-28T12:11:48;95522.38;;;12.27;88.89
55424;BME280;41294;42.666;23.350;2023-02-28T12:18:23;95521.25;;;12.37;86.95
55424;BME280;41294;42.666;23.350;2023-02-28T12:20:33;95519.00;;;11.53;90.75
55424;BME280;41294;42.666;23.350;2023-02-28T12:28:49;95532.59;;;11.73;90.73
55424;BME280;41294;42.666;23.350;2023-02-28T12:31:38;95536.16;;;11.45;92.29
55424;BME280;41294;42.666;23.350;2023-02-28T12:34:10;95521.81;;;11.46;92.33
55424;BME280;41294;42.666;23.350;2023-02-28T12:36:37;95525.50;;;11.61;90.85
55424;BME280;41294;42.666;23.350;2023-02-28T12:39:12;95522.38;;;11.75;91.16
55424;BME280;41294;42.666;23.350;2023-02-28T12:41:58;95517.50;;;11.95;89.29
55424;BME280;41294;42.666;23.350;2023-02-28T12:46:56;95513.31;;;12.37;86.82
55424;BME280;41294;42.666;23.350;2023-02-28T12:52:01;95509.81;;;11.45;89.26
55424;BME280;41294;42.666;23.350;2023-02-28T12:54:38;95510.13;;;11.47;89.37
55424;BME280;41294;42.666;23.350;2023-02-28T12:57:31;95504.88;;;11.69;89.73
55424;BME280;41294;42.666;23.350;2023-02-28T13:00:03;95510.72;;;11.85;89.85
55424;BME280;41294;42.666;23.350;2023-02-28T13:05:22;95507.91;;;11.58;89.39
55424;BME280;41294;42.666;23.350;2023-02-28T13:10:58;95502.00;;;11.76;87.87
55424;BME280;41294;42.666;23.350;2023-02-28T13:13:25;95517.63;;;12.13;87.14
55424;BME280;41294;42.666;23.350;2023-02-28T13:18:30;95514.53;;;12.15;86.53
55424;BME280;41294;42.666;23.350;2023-02-28T13:20:56;95512.97;;;11.53;89.85
55424;BME280;41294;42.666;23.350;2023-02-28T13:26:21;95502.88;;;11.73;90.43
55424;BME280;41294;42.666;23.350;2023-02-28T13:28:58;95494.09;;;11.54;89.96
55424;BME280;41294;42.666;23.350;2023-02-28T13:31:24;95496.63;;;11.79;88.10
55424;BME280;41294;42.666;23.350;2023-02-28T13:36:31;95504.69;;;12.06;85.67
55424;BME280;41294;42.666;23.350;2023-02-28T13:39:01;95492.69;;;12.14;85.87
55424;BME280;41294;42.666;23.350;2023-02-28T14:08:57;95487.50;;;11.38;89.10
55424;BME280;41294;42.666;23.350;2023-02-28T14:11:31;95494.25;;;11.05;90.98
55424;BME280;41294;42.666;23.350;2023-02-28T14:13:57;95487.09;;;10.93;92.37
55424;BME280;41294;42.666;23.350;2023-02-28T14:16:27;95484.28;;;11.00;92.84
55424;BME280;41294;42.666;23.350;2023-02-28T14:18:56;95490.63;;;10.90;93.43
55424;BME280;41294;42.666;23.350;2023-02-28T14:21:36;95490.22;;;11.13;92.57
55424;BME280;41294;42.666;23.350;2023-02-28T14:24:13;95496.50;;;10.94;93.06
55424;BME280;41294;42.666;23.350;2023-02-28T14:30:01;95493.41;;;11.08;93.17
55424;BME280;41294;42.666;23.350;2023-02-28T14:32:46;95510.00;;;10.83;94.44
55424;BME280;41294;42.666;23.350;2023-02-28T14:37:51;95498.91;;;10.88;94.27
55424;BME280;41294;42.666;23.350;2023-02-28T14:40:32;95504.09;;;10.79;95.11
55424;BME280;41294;42.666;23.350;2023-02-28T14:43:04;95503.06;;;10.77;95.33
55424;BME280;41294;42.666;23.350;2023-02-28T14:45:32;95493.38;;;10.74;95.57
55424;BME280;41294;42.666;23.350;2023-02-28T14:47:58;95497.84;;;10.98;94.52
55424;BME280;41294;42.666;23.350;2023-02-28T14:50:30;95508.28;;;10.89;94.80
55424;BME280;41294;42.666;23.350;2023-02-28T14:52:57;95490.38;;;10.97;94.36
55424;BME280;41294;42.666;23.350;2023-02-28T14:55:27;95499.91;;;11.16;93.31
55424;BME280;41294;42.666;23.350;2023-02-28T14:57:59;95509.69;;;10.81;93.79
55424;BME280;41294;42.666;23.350;2023-02-28T15:00:30;95506.22;;;10.72;95.35
55424;BME280;41294;42.666;23.350;2023-02-28T15:02:57;95488.91;;;10.96;93.87
55424;BME280;41294;42.666;23.350;2023-02-28T15:08:13;95492.88;;;10.66;95.93
55424;BME280;41294;42.666;23.350;2023-02-28T15:10:43;95492.88;;;10.54;97.46
55424;BME280;41294;42.666;23.350;2023-02-28T15:13:14;95503.50;;;10.75;95.98
55424;BME280;41294;42.666;23.350;2023-02-28T15:15:58;95493.41;;;10.49;97.12
55424;BME280;41294;42.666;23.350;2023-02-28T15:21:20;95495.19;;;10.64;97.02
55424;BME280;41294;42.666;23.350;2023-02-28T15:23:59;95492.78;;;10.58;95.42
55424;BME280;41294;42.666;23.350;2023-02-28T15:26:32;95495.09;;;10.56;95.71
55424;BME280;41294;42.666;23.350;2023-02-28T15:29:01;95505.94;;;10.58;95.09
55424;BME280;41294;42.666;23.350;2023-02-28T15:31:43;95502.97;;;10.56;95.94